RPi & Temperatures at JO21ut

Last graph updates: Sunday 26 January 2020 03:03 CET

Sunrise: 08:23 & Sunset: 17:15 The Sun is currently not visible. [-43.47 degrees] and 147290378 Km from the Earth
Moonrise: 9:36 & Moonset: 18:50 Waxing Crescent Moon The Moon is 399899 Km from the Earth
Find here more details on MARS.

03:38:05 up 34 days, 8:47, 0 users, load average: 1.97, 2.11, 2.23
Current CPU frequency is: 1000 Mhz
Current GPU temperature: 29.862°C
Current inside temperature is 16.3°C with a humidity of 83.9%
Second inside temperature is 15.9°C with a pressure of 1013.65 Hpa (29.7 inHg) and an uncorrected altitude of -2.91 m
ds18b20 now showing 15.2°C

All the sensors I use, DHT22 | BMP085 | MPU6050 | BH1750FVI | MMA7455 | HMC5883L | MPL3115A2 | DS1307 | HTU21 | AM2321 | DS3231 | INA219 | LM75A , and it's current readout can be viewed here please be patient as it needs to read all sensors data. The page loads after about 10 seconds. In our forum more details can be found such as the used software/sources. Feel free to add yours also..


Pressure BMP085
Pressure BMP085
Pressure BMP085
Pressure BMP085
PI CPU Temp
Inet Volkel temp
Inside temp BMP085
Humidity BMP085
PI CPU Temp
Inet Volkel temp
Inside temp BMP085
Humidity BMP085
PI CPU Temp
Inet Volkel temp
Inside temp BMP085
Humidity BMP085
PI CPU Temp
Inet Volkel temp
Inside temp BMP085
Humidity BMP085
PI CPU Temp
Inet Volkel temp
Inside temp BMP085
Humidity BMP085
Inside light BH1750FV
Inside light BH1750FV
Inside light BH1750FV
Inside light BH1750FV
Inside light BH1750FV
Inside light BH1750FV
Sunlight hours
 

Sun & Moon position graph 
Created with jpgraph 4.2.10


Wijchen weather

Weer Widget
ScreenSaver yr.no

Sun Moon Earth


EHEH 260225Z AUTO 15006KT 130V200 0650 FG OVC000 02/02 Q1017 RED EHEH 260225Z AUTO 15006KT 130V200 0650 FG OVC000 02/02 Q1017 RED EHEH 260225Z AUTO 15006KT 130V200 0650 FG OVC000 02/02 Q1017 RED

Weather data from Volkel [NL] EHVK


13 minutes ago, at 02:25 UTC, the wind was calm in Volkel [EHVK], Netherlands. The temperature was 2 °C (36 °F) with a dewpoint of 2 °C (36 °F), and the pressure was 1,017 hPa (30.03 inHg). The relative humidity was 100.0%. There were overcast at a height of 0 meter (0 feet). The visibility was 0.7 kilometers (0.4 miles). Current weather is Moderate Fog .




View code:

Contact me  |  My Raspberry PI forum